sensor_id;sensor_type;location;lat;lon;timestamp;pressure;altitude;pressure_sealevel;temperature;humidity
60307;BME280;46155;52.364;6.580;2022-09-09T03:01:03;100570.28;;;14.40;100.00
60307;BME280;46155;52.364;6.580;2022-09-09T03:03:29;100572.78;;;14.37;100.00
60307;BME280;46155;52.364;6.580;2022-09-09T03:05:55;100578.06;;;14.37;100.00
60307;BME280;46155;52.364;6.580;2022-09-09T03:08:22;100571.00;;;14.36;100.00
60307;BME280;46155;52.364;6.580;2022-09-09T03:10:47;100572.66;;;14.34;100.00
60307;BME280;46155;52.364;6.580;2022-09-09T03:13:12;100565.31;;;14.27;100.00
60307;BME280;46155;52.364;6.580;2022-09-09T03:15:38;100581.22;;;14.28;100.00
60307;BME280;46155;52.364;6.580;2022-09-09T03:18:03;100565.19;;;14.24;100.00
60307;BME280;46155;52.364;6.580;2022-09-09T03:20:29;100574.59;;;14.17;100.00
60307;BME280;46155;52.364;6.580;2022-09-09T03:22:55;100571.88;;;14.16;100.00
60307;BME280;46155;52.364;6.580;2022-09-09T03:25:21;100575.34;;;14.15;100.00
60307;BME280;46155;52.364;6.580;2022-09-09T03:27:51;100575.34;;;14.15;100.00
60307;BME280;46155;52.364;6.580;2022-09-09T03:30:22;100573.69;;;14.17;100.00
60307;BME280;46155;52.364;6.580;2022-09-09T03:32:48;100570.72;;;14.09;100.00
60307;BME280;46155;52.364;6.580;2022-09-09T03:35:14;100572.66;;;14.13;100.00
60307;BME280;46155;52.364;6.580;2022-09-09T03:37:40;100572.72;;;14.15;100.00
60307;BME280;46155;52.364;6.580;2022-09-09T03:40:07;100568.16;;;14.10;100.00
60307;BME280;46155;52.364;6.580;2022-09-09T03:42:34;100575.22;;;14.11;100.00
60307;BME280;46155;52.364;6.580;2022-09-09T03:45:03;100554.56;;;14.01;100.00
60307;BME280;46155;52.364;6.580;2022-09-09T03:47:28;100557.19;;;14.01;100.00
60307;BME280;46155;52.364;6.580;2022-09-09T03:49:54;100559.00;;;14.02;100.00
60307;BME280;46155;52.364;6.580;2022-09-09T03:52:19;100554.50;;;14.00;100.00
60307;BME280;46155;52.364;6.580;2022-09-09T03:54:46;100560.53;;;13.97;100.00
60307;BME280;46155;52.364;6.580;2022-09-09T03:57:12;100556.88;;;13.93;100.00
60307;BME280;46155;52.364;6.580;2022-09-09T03:59:38;100561.94;;;13.89;100.00
60307;BME280;46155;52.364;6.580;2022-09-09T04:02:04;100560.16;;;13.88;100.00
60307;BME280;46155;52.364;6.580;2022-09-09T04:04:29;100556.41;;;13.83;100.00
60307;BME280;46155;52.364;6.580;2022-09-09T04:06:55;100561.56;;;13.80;100.00
60307;BME280;46155;52.364;6.580;2022-09-09T04:09:20;100566.06;;;13.82;100.00
60307;BME280;46155;52.364;6.580;2022-09-09T04:11:45;100570.38;;;13.80;100.00
60307;BME280;46155;52.364;6.580;2022-09-09T04:14:11;100564.75;;;13.72;100.00
60307;BME280;46155;52.364;6.580;2022-09-09T04:16:37;100564.88;;;13.75;100.00
60307;BME280;46155;52.364;6.580;2022-09-09T04:19:04;100568.34;;;13.74;100.00
60307;BME280;46155;52.364;6.580;2022-09-09T04:21:31;100568.41;;;13.76;100.00
60307;BME280;46155;52.364;6.580;2022-09-09T04:23:57;100570.28;;;13.78;100.00
60307;BME280;46155;52.364;6.580;2022-09-09T04:26:22;100572.94;;;13.78;100.00
60307;BME280;46155;52.364;6.580;2022-09-09T04:28:47;100559.47;;;13.72;100.00
60307;BME280;46155;52.364;6.580;2022-09-09T04:31:19;100562.94;;;13.71;100.00
60307;BME280;46155;52.364;6.580;2022-09-09T04:33:45;100562.25;;;13.75;100.00
60307;BME280;46155;52.364;6.580;2022-09-09T04:36:11;100555.16;;;13.74;100.00
60307;BME280;46155;52.364;6.580;2022-09-09T04:38:37;100564.06;;;13.76;100.00
60307;BME280;46155;52.364;6.580;2022-09-09T04:41:03;100558.84;;;13.78;100.00
60307;BME280;46155;52.364;6.580;2022-09-09T04:43:29;100554.53;;;13.80;100.00
60307;BME280;46155;52.364;6.580;2022-09-09T04:45:55;100557.22;;;13.82;100.00
60307;BME280;46155;52.364;6.580;2022-09-09T04:48:21;100559.03;;;13.83;100.00
60307;BME280;46155;52.364;6.580;2022-09-09T04:51:01;100553.91;;;13.86;100.00
60307;BME280;46155;52.364;6.580;2022-09-09T04:53:27;100549.59;;;13.88;100.00
60307;BME280;46155;52.364;6.580;2022-09-09T04:56:04;100555.91;;;13.91;100.00
60307;BME280;46155;52.364;6.580;2022-09-09T04:58:30;100555.13;;;13.94;100.00
60307;BME280;46155;52.364;6.580;2022-09-09T05:01:09;100558.88;;;13.99;100.00
60307;BME280;46155;52.364;6.580;2022-09-09T05:03:35;100552.75;;;14.00;100.00
60307;BME280;46155;52.364;6.580;2022-09-09T05:06:09;100547.59;;;14.03;100.00
60307;BME280;46155;52.364;6.580;2022-09-09T05:08:36;100548.56;;;14.05;100.00
60307;BME280;46155;52.364;6.580;2022-09-09T05:11:02;100546.88;;;14.07;100.00
60307;BME280;46155;52.364;6.580;2022-09-09T05:13:28;100552.16;;;14.07;100.00
60307;BME280;46155;52.364;6.580;2022-09-09T05:15:54;100553.22;;;14.11;100.00
60307;BME280;46155;52.364;6.580;2022-09-09T05:18:19;100558.22;;;14.26;100.00
60307;BME280;46155;52.364;6.580;2022-09-09T05:20:45;100558.38;;;14.29;100.00
60307;BME280;46155;52.364;6.580;2022-09-09T05:23:10;100561.97;;;14.31;100.00
60307;BME280;46155;52.364;6.580;2022-09-09T05:25:38;100556.63;;;14.29;100.00
60307;BME280;46155;52.364;6.580;2022-09-09T05:28:03;100547.81;;;14.29;100.00
60307;BME280;46155;52.364;6.580;2022-09-09T05:30:28;100543.41;;;14.29;100.00
60307;BME280;46155;52.364;6.580;2022-09-09T05:32:57;100545.25;;;14.31;100.00
60307;BME280;46155;52.364;6.580;2022-09-09T05:35:22;100545.34;;;14.34;100.00
60307;BME280;46155;52.364;6.580;2022-09-09T05:37:48;100549.88;;;14.36;100.00
60307;BME280;46155;52.364;6.580;2022-09-09T05:40:13;100536.53;;;14.33;100.00
60307;BME280;46155;52.364;6.580;2022-09-09T05:42:39;100540.25;;;14.38;100.00
60307;BME280;46155;52.364;6.580;2022-09-09T05:45:06;100546.63;;;14.43;100.00
60307;BME280;46155;52.364;6.580;2022-09-09T05:47:33;100545.72;;;14.64;100.00
60307;BME280;46155;52.364;6.580;2022-09-09T05:49:58;100544.47;;;14.77;100.00
60307;BME280;46155;52.364;6.580;2022-09-09T05:52:23;100544.28;;;14.72;100.00
60307;BME280;46155;52.364;6.580;2022-09-09T05:54:50;100543.13;;;14.66;100.00
60307;BME280;46155;52.364;6.580;2022-09-09T05:57:16;100546.59;;;14.63;100.00
60307;BME280;46155;52.364;6.580;2022-09-09T05:59:41;100538.25;;;14.54;100.00
60307;BME280;46155;52.364;6.580;2022-09-09T06:02:08;100549.97;;;14.60;100.00
60307;BME280;46155;52.364;6.580;2022-09-09T06:04:33;100546.59;;;14.63;100.00
60307;BME280;46155;52.364;6.580;2022-09-09T06:06:59;100550.19;;;14.65;100.00
60307;BME280;46155;52.364;6.580;2022-09-09T06:09:24;100554.50;;;14.63;100.00
60307;BME280;46155;52.364;6.580;2022-09-09T06:11:49;100560.03;;;14.69;100.00
60307;BME280;46155;52.364;6.580;2022-09-09T06:14:14;100557.56;;;14.74;100.00
60307;BME280;46155;52.364;6.580;2022-09-09T06:16:40;100557.75;;;14.78;100.00
60307;BME280;46155;52.364;6.580;2022-09-09T06:19:08;100547.13;;;14.77;100.00
60307;BME280;46155;52.364;6.580;2022-09-09T06:21:35;100564.13;;;14.84;100.00
60307;BME280;46155;52.364;6.580;2022-09-09T06:24:04;100560.53;;;14.82;100.00
60307;BME280;46155;52.364;6.580;2022-09-09T06:26:35;100558.84;;;14.84;100.00
60307;BME280;46155;52.364;6.580;2022-09-09T06:29:01;100561.47;;;14.84;100.00
60307;BME280;46155;52.364;6.580;2022-09-09T06:31:29;100557.47;;;14.93;100.00
60307;BME280;46155;52.364;6.580;2022-09-09T06:33:56;100551.50;;;14.99;100.00
60307;BME280;46155;52.364;6.580;2022-09-09T06:36:27;100554.25;;;15.02;100.00
60307;BME280;46155;52.364;6.580;2022-09-09T06:38:53;100554.38;;;15.05;100.00
60307;BME280;46155;52.364;6.580;2022-09-09T06:41:20;100552.72;;;15.07;100.00
60307;BME280;46155;52.364;6.580;2022-09-09T06:43:46;100559.94;;;15.11;100.00
60307;BME280;46155;52.364;6.580;2022-09-09T06:46:14;100548.56;;;15.14;100.00
60307;BME280;46155;52.364;6.580;2022-09-09T06:48:40;100553.09;;;15.18;100.00
60307;BME280;46155;52.364;6.580;2022-09-09T06:53:40;100560.50;;;15.27;100.00
60307;BME280;46155;52.364;6.580;2022-09-09T06:56:26;100551.97;;;15.34;100.00
60307;BME280;46155;52.364;6.580;2022-09-09T06:58:54;100544.84;;;15.33;100.00
60307;BME280;46155;52.364;6.580;2022-09-09T07:01:22;100552.53;;;15.49;100.00
60307;BME280;46155;52.364;6.580;2022-09-09T07:03:50;100556.38;;;15.82;100.00
60307;BME280;46155;52.364;6.580;2022-09-09T07:06:24;100557.69;;;16.21;100.00
60307;BME280;46155;52.364;6.580;2022-09-09T07:09:01;100551.66;;;16.25;100.00
60307;BME280;46155;52.364;6.580;2022-09-09T07:11:28;100552.56;;;16.25;100.00
60307;BME280;46155;52.364;6.580;2022-09-09T07:13:54;100546.38;;;16.25;100.00
60307;BME280;46155;52.364;6.580;2022-09-09T07:16:21;100554.81;;;16.14;100.00
60307;BME280;46155;52.364;6.580;2022-09-09T07:18:49;100558.22;;;16.10;100.00
60307;BME280;46155;52.364;6.580;2022-09-09T07:21:16;100560.13;;;16.14;100.00
60307;BME280;46155;52.364;6.580;2022-09-09T07:23:42;100560.03;;;16.11;100.00
60307;BME280;46155;52.364;6.580;2022-09-09T07:26:18;100554.44;;;16.02;100.00
60307;BME280;46155;52.364;6.580;2022-09-09T07:28:47;100548.09;;;15.98;100.00
60307;BME280;46155;52.364;6.580;2022-09-09T07:31:18;100554.63;;;16.08;100.00
60307;BME280;46155;52.364;6.580;2022-09-09T07:33:46;100549.13;;;16.02;100.00
60307;BME280;46155;52.364;6.580;2022-09-09T07:36:23;100553.25;;;16.20;100.00
60307;BME280;46155;52.364;6.580;2022-09-09T07:38:51;100550.47;;;16.42;100.00
60307;BME280;46155;52.364;6.580;2022-09-09T07:43:46;100549.75;;;17.02;100.00
60307;BME280;46155;52.364;6.580;2022-09-09T07:46:14;100557.09;;;17.11;97.66
60307;BME280;46155;52.364;6.580;2022-09-09T07:48:47;100548.75;;;16.99;96.86
60307;BME280;46155;52.364;6.580;2022-09-09T07:51:17;100551.91;;;17.16;97.30
60307;BME280;46155;52.364;6.580;2022-09-09T07:53:45;100558.25;;;17.51;98.73
60307;BME280;46155;52.364;6.580;2022-09-09T07:56:13;100561.66;;;17.78;95.77
60307;BME280;46155;52.364;6.580;2022-09-09T07:58:40;100556.25;;;18.06;93.24
60307;BME280;46155;52.364;6.580;2022-09-09T08:01:11;100559.31;;;18.22;90.08
60307;BME280;46155;52.364;6.580;2022-09-09T08:03:37;100550.66;;;18.31;90.43
60307;BME280;46155;52.364;6.580;2022-09-09T08:06:07;100549.06;;;18.37;89.02
60307;BME280;46155;52.364;6.580;2022-09-09T08:08:35;100553.81;;;18.51;89.43
60307;BME280;46155;52.364;6.580;2022-09-09T08:11:19;100562.38;;;18.39;88.13
60307;BME280;46155;52.364;6.580;2022-09-09T08:13:44;100573.53;;;18.26;87.61
60307;BME280;46155;52.364;6.580;2022-09-09T08:16:12;100567.84;;;18.10;87.67
60307;BME280;46155;52.364;6.580;2022-09-09T08:18:38;100568.00;;;17.84;89.67
60307;BME280;46155;52.364;6.580;2022-09-09T08:21:16;100572.72;;;17.63;90.52
60307;BME280;46155;52.364;6.580;2022-09-09T08:23:44;100565.22;;;17.48;90.97
60307;BME280;46155;52.364;6.580;2022-09-09T08:26:19;100568.75;;;17.47;92.26
60307;BME280;46155;52.364;6.580;2022-09-09T08:28:48;100570.66;;;17.52;93.12
60307;BME280;46155;52.364;6.580;2022-09-09T08:31:21;100572.38;;;17.50;93.33
60307;BME280;46155;52.364;6.580;2022-09-09T08:33:47;100579.06;;;17.68;93.69
60307;BME280;46155;52.364;6.580;2022-09-09T08:36:15;100575.72;;;17.75;92.20
60307;BME280;46155;52.364;6.580;2022-09-09T08:38:42;100589.03;;;17.77;91.39
60307;BME280;46155;52.364;6.580;2022-09-09T08:43:35;100580.75;;;17.66;89.85
60307;BME280;46155;52.364;6.580;2022-09-09T08:46:16;100586.16;;;17.69;89.37
60307;BME280;46155;52.364;6.580;2022-09-09T08:48:59;100589.94;;;17.77;89.63
60307;BME280;46155;52.364;6.580;2022-09-09T08:51:29;100595.88;;;17.99;90.46
60307;BME280;46155;52.364;6.580;2022-09-09T08:53:58;100594.31;;;18.07;87.72
60307;BME280;46155;52.364;6.580;2022-09-09T08:56:26;100597.28;;;18.18;87.77
60307;BME280;46155;52.364;6.580;2022-09-09T08:58:55;100594.72;;;18.22;87.11
60307;BME280;46155;52.364;6.580;2022-09-09T09:09:38;100592.88;;;18.20;88.18
60307;BME280;46155;52.364;6.580;2022-09-09T09:12:16;100601.78;;;18.20;86.88
60307;BME280;46155;52.364;6.580;2022-09-09T09:14:44;100602.63;;;18.19;86.69
60307;BME280;46155;52.364;6.580;2022-09-09T09:17:19;100602.72;;;18.24;86.50
60307;BME280;46155;52.364;6.580;2022-09-09T09:19:46;100594.91;;;18.29;87.23
60307;BME280;46155;52.364;6.580;2022-09-09T09:22:21;100590.69;;;18.38;86.97
60307;BME280;46155;52.364;6.580;2022-09-09T09:27:33;100599.28;;;18.62;86.26
60307;BME280;46155;52.364;6.580;2022-09-09T09:30:20;100594.88;;;18.64;84.83
60307;BME280;46155;52.364;6.580;2022-09-09T09:35:40;100592.22;;;18.64;85.32
60307;BME280;46155;52.364;6.580;2022-09-09T09:38:19;100587.13;;;18.73;82.99
60307;BME280;46155;52.364;6.580;2022-09-09T09:41:05;100587.53;;;18.88;82.95
60307;BME280;46155;52.364;6.580;2022-09-09T09:43:35;100579.44;;;19.23;81.99
60307;BME280;46155;52.364;6.580;2022-09-09T09:46:04;100591.81;;;19.21;77.96
60307;BME280;46155;52.364;6.580;2022-09-09T09:48:29;100590.00;;;19.19;78.71
60307;BME280;46155;52.364;6.580;2022-09-09T09:51:00;100600.31;;;19.05;77.96
60307;BME280;46155;52.364;6.580;2022-09-09T09:53:30;100588.00;;;19.08;78.68
60307;BME280;46155;52.364;6.580;2022-09-09T09:56:00;100595.81;;;19.02;78.48
60307;BME280;46155;52.364;6.580;2022-09-09T09:58:27;100588.78;;;19.04;76.92
60307;BME280;46155;52.364;6.580;2022-09-09T10:00:56;100590.59;;;19.05;76.77
60307;BME280;46155;52.364;6.580;2022-09-09T10:03:28;100596.72;;;19.03;77.78
60307;BME280;46155;52.364;6.580;2022-09-09T10:05:54;100601.88;;;18.97;77.62
60307;BME280;46155;52.364;6.580;2022-09-09T10:08:21;100597.97;;;18.82;77.98
60307;BME280;46155;52.364;6.580;2022-09-09T10:11:10;100603.03;;;18.70;78.22
60307;BME280;46155;52.364;6.580;2022-09-09T10:16:53;100611.53;;;18.56;78.45
60307;BME280;46155;52.364;6.580;2022-09-09T10:19:50;100602.59;;;18.53;80.04
60307;BME280;46155;52.364;6.580;2022-09-09T10:22:25;100599.09;;;18.55;79.59
60307;BME280;46155;52.364;6.580;2022-09-09T10:25:09;100612.59;;;18.63;79.74
60307;BME280;46155;52.364;6.580;2022-09-09T10:30:19;100599.09;;;18.55;79.84
60307;BME280;46155;52.364;6.580;2022-09-09T10:33:49;100597.22;;;18.51;78.33
60307;BME280;46155;52.364;6.580;2022-09-09T10:36:12;100600.75;;;18.50;78.79
60307;BME280;46155;52.364;6.580;2022-09-09T10:38:45;100594.88;;;18.64;78.40
60307;BME280;46155;52.364;6.580;2022-09-09T10:44:20;100585.72;;;18.87;77.24
60307;BME280;46155;52.364;6.580;2022-09-09T10:46:53;100589.31;;;18.89;76.82
60307;BME280;46155;52.364;6.580;2022-09-09T10:55:10;100575.09;;;18.87;76.59
60307;BME280;46155;52.364;6.580;2022-09-09T10:57:41;100582.34;;;18.95;78.03
60307;BME280;46155;52.364;6.580;2022-09-09T11:00:22;100582.09;;;18.85;77.31
60307;BME280;46155;52.364;6.580;2022-09-09T11:02:58;100584.88;;;18.88;77.81
60307;BME280;46155;52.364;6.580;2022-09-09T11:05:41;100580.84;;;19.06;78.51
60307;BME280;46155;52.364;6.580;2022-09-09T11:08:14;100579.44;;;19.23;76.82
60307;BME280;46155;52.364;6.580;2022-09-09T11:13:35;100571.78;;;19.39;72.81
60307;BME280;46155;52.364;6.580;2022-09-09T11:21:45;100573.88;;;19.11;74.60
60307;BME280;46155;52.364;6.580;2022-09-09T11:24:18;100575.28;;;18.97;77.80
60307;BME280;46155;52.364;6.580;2022-09-09T11:26:58;100580.53;;;18.93;78.61
60307;BME280;46155;52.364;6.580;2022-09-09T11:35:53;100576.59;;;19.14;77.46
60307;BME280;46155;52.364;6.580;2022-09-09T11:38:28;100578.50;;;19.20;75.54
60307;BME280;46155;52.364;6.580;2022-09-09T11:40:56;100576.63;;;19.16;74.83
60307;BME280;46155;52.364;6.580;2022-09-09T11:43:28;100575.72;;;19.15;74.90
60307;BME280;46155;52.364;6.580;2022-09-09T11:45:57;100565.72;;;19.05;73.52
60307;BME280;46155;52.364;6.580;2022-09-09T11:48:33;100575.56;;;19.09;77.00
60307;BME280;46155;52.364;6.580;2022-09-09T11:51:10;100567.75;;;19.15;76.64
60307;BME280;46155;52.364;6.580;2022-09-09T11:56:43;100570.59;;;19.24;72.51
60307;BME280;46155;52.364;6.580;2022-09-09T11:59:30;100593.47;;;19.16;72.62
60307;BME280;46155;52.364;6.580;2022-09-09T12:02:21;100579.94;;;19.05;73.74
60307;BME280;46155;52.364;6.580;2022-09-09T12:05:08;100573.44;;;18.92;75.95
60307;BME280;46155;52.364;6.580;2022-09-09T12:07:46;100575.78;;;18.80;75.72
60307;BME280;46155;52.364;6.580;2022-09-09T12:10:26;100584.44;;;18.71;76.28
60307;BME280;46155;52.364;6.580;2022-09-09T12:12:52;100585.38;;;18.73;77.05
60307;BME280;46155;52.364;6.580;2022-09-09T12:17:50;100575.84;;;18.83;80.87
60307;BME280;46155;52.364;6.580;2022-09-09T12:20:36;100573.31;;;18.88;80.31
60307;BME280;46155;52.364;6.580;2022-09-09T12:28:52;100578.91;;;18.99;76.07
60307;BME280;46155;52.364;6.580;2022-09-09T12:31:34;100573.06;;;19.15;74.41
60307;BME280;46155;52.364;6.580;2022-09-09T12:36:53;100566.69;;;19.07;73.32
60307;BME280;46155;52.364;6.580;2022-09-09T12:39:35;100572.03;;;19.08;73.76
60307;BME280;46155;52.364;6.580;2022-09-09T12:42:02;100566.75;;;19.10;73.34
60307;BME280;46155;52.364;6.580;2022-09-09T12:44:29;100563.22;;;19.11;73.15
60307;BME280;46155;52.364;6.580;2022-09-09T12:46:57;100566.88;;;19.16;73.26
60307;BME280;46155;52.364;6.580;2022-09-09T12:49:36;100563.28;;;19.14;73.15
60307;BME280;46155;52.364;6.580;2022-09-09T12:52:28;100565.97;;;19.16;72.90
60307;BME280;46155;52.364;6.580;2022-09-09T12:54:55;100560.69;;;19.17;73.30
60307;BME280;46155;52.364;6.580;2022-09-09T12:57:23;100559.00;;;19.21;73.58
60307;BME280;46155;52.364;6.580;2022-09-09T12:59:50;100575.44;;;19.03;73.78
60307;BME280;46155;52.364;6.580;2022-09-09T13:02:19;100596.28;;;18.84;79.16
60307;BME280;46155;52.364;6.580;2022-09-09T13:04:45;100595.44;;;18.50;85.67
60307;BME280;46155;52.364;6.580;2022-09-09T13:07:12;100601.16;;;18.31;87.63
60307;BME280;46155;52.364;6.580;2022-09-09T13:09:39;100604.94;;;18.07;91.72
60307;BME280;46155;52.364;6.580;2022-09-09T13:12:06;100598.25;;;17.89;94.77
60307;BME280;46155;52.364;6.580;2022-09-09T13:14:38;100602.19;;;17.72;97.26
60307;BME280;46155;52.364;6.580;2022-09-09T13:17:04;100591.19;;;17.58;99.96
60307;BME280;46155;52.364;6.580;2022-09-09T13:19:35;100597.47;;;17.62;100.00
60307;BME280;46155;52.364;6.580;2022-09-09T13:22:13;100579.59;;;17.56;100.00
60307;BME280;46155;52.364;6.580;2022-09-09T13:24:39;100585.69;;;17.52;100.00
60307;BME280;46155;52.364;6.580;2022-09-09T13:27:22;100579.34;;;17.47;100.00
60307;BME280;46155;52.364;6.580;2022-09-09T13:29:53;100583.19;;;17.57;100.00
60307;BME280;46155;52.364;6.580;2022-09-09T13:32:20;100572.56;;;17.57;100.00
60307;BME280;46155;52.364;6.580;2022-09-09T13:34:54;100574.28;;;17.56;100.00
60307;BME280;46155;52.364;6.580;2022-09-09T13:37:35;100566.06;;;17.79;100.00
60307;BME280;46155;52.364;6.580;2022-09-09T13:40:03;100565.25;;;17.81;100.00
60307;BME280;46155;52.364;6.580;2022-09-09T13:42:32;100565.34;;;17.84;100.00
60307;BME280;46155;52.364;6.580;2022-09-09T13:45:00;100566.03;;;17.77;100.00
60307;BME280;46155;52.364;6.580;2022-09-09T13:47:32;100564.34;;;17.79;100.00
60307;BME280;46155;52.364;6.580;2022-09-09T13:49:57;100564.34;;;17.79;100.00
60307;BME280;46155;52.364;6.580;2022-09-09T13:52:23;100567.34;;;17.92;100.00
60307;BME280;46155;52.364;6.580;2022-09-09T13:54:51;100564.91;;;17.99;100.00
60307;BME280;46155;52.364;6.580;2022-09-09T13:57:24;100563.19;;;18.01;100.00
60307;BME280;46155;52.364;6.580;2022-09-09T13:59:54;100554.41;;;18.04;100.00
60307;BME280;46155;52.364;6.580;2022-09-09T14:02:22;100568.91;;;18.17;100.00
60307;BME280;46155;52.364;6.580;2022-09-09T14:04:48;100570.66;;;18.16;100.00
60307;BME280;46155;52.364;6.580;2022-09-09T14:07:17;100574.88;;;18.08;98.58
60307;BME280;46155;52.364;6.580;2022-09-09T14:09:43;100567.59;;;18.01;97.42
60307;BME280;46155;52.364;6.580;2022-09-09T14:12:10;100571.81;;;17.93;97.33
60307;BME280;46155;52.364;6.580;2022-09-09T14:14:36;100567.38;;;17.93;97.55
60307;BME280;46155;52.364;6.580;2022-09-09T14:17:01;100575.97;;;17.84;96.74
60307;BME280;46155;52.364;6.580;2022-09-09T14:19:28;100571.44;;;17.80;98.04
60307;BME280;46155;52.364;6.580;2022-09-09T14:21:53;100568.16;;;17.89;98.94
60307;BME280;46155;52.364;6.580;2022-09-09T14:24:19;100570.25;;;18.01;98.89
60307;BME280;46155;52.364;6.580;2022-09-09T14:26:44;100567.78;;;18.09;99.20
60307;BME280;46155;52.364;6.580;2022-09-09T14:29:10;100570.16;;;17.96;96.84
60307;BME280;46155;52.364;6.580;2022-09-09T14:31:35;100577.78;;;17.85;95.97
60307;BME280;46155;52.364;6.580;2022-09-09T14:34:00;100573.22;;;17.81;96.48
60307;BME280;46155;52.364;6.580;2022-09-09T14:36:26;100579.22;;;17.74;97.19
60307;BME280;46155;52.364;6.580;2022-09-09T14:38:51;100575.38;;;17.63;98.07
60307;BME280;46155;52.364;6.580;2022-09-09T14:41:18;100571.72;;;17.59;96.64
60307;BME280;46155;52.364;6.580;2022-09-09T14:43:45;100577.19;;;17.64;97.30
60307;BME280;46155;52.364;6.580;2022-09-09T14:46:15;100568.25;;;17.62;98.13
60307;BME280;46155;52.364;6.580;2022-09-09T14:48:41;100573.03;;;17.73;98.61
60307;BME280;46155;52.364;6.580;2022-09-09T14:51:10;100562.66;;;17.83;98.75
60307;BME280;46155;52.364;6.580;2022-09-09T14:53:36;100563.84;;;17.93;97.81
60307;BME280;46155;52.364;6.580;2022-09-09T14:56:07;100564.84;;;17.96;97.82
60307;BME280;46155;52.364;6.580;2022-09-09T14:58:33;100555.13;;;17.98;98.02
60307;BME280;46155;52.364;6.580;2022-09-09T15:01:07;100556.91;;;17.98;97.54
60307;BME280;46155;52.364;6.580;2022-09-09T15:03:35;100555.09;;;17.97;97.17
60307;BME280;46155;52.364;6.580;2022-09-09T15:06:05;100554.16;;;17.95;97.38
60307;BME280;46155;52.364;6.580;2022-09-09T15:08:30;100550.41;;;17.88;96.67
60307;BME280;46155;52.364;6.580;2022-09-09T15:11:01;100554.72;;;17.84;96.34
60307;BME280;46155;52.364;6.580;2022-09-09T15:13:27;100553.91;;;17.87;96.90
60307;BME280;46155;52.364;6.580;2022-09-09T15:15:53;100552.94;;;17.83;96.29
60307;BME280;46155;52.364;6.580;2022-09-09T15:18:20;100549.56;;;17.89;96.47
60307;BME280;46155;52.364;6.580;2022-09-09T15:20:45;100550.53;;;17.91;95.88
60307;BME280;46155;52.364;6.580;2022-09-09T15:23:12;100552.94;;;17.83;94.08
60307;BME280;46155;52.364;6.580;2022-09-09T15:25:37;100547.38;;;17.74;93.20
60307;BME280;46155;52.364;6.580;2022-09-09T15:28:02;100555.38;;;17.76;93.75
60307;BME280;46155;52.364;6.580;2022-09-09T15:30:28;100550.16;;;17.79;95.88
60307;BME280;46155;52.364;6.580;2022-09-09T15:32:53;100543.88;;;17.75;96.87
60307;BME280;46155;52.364;6.580;2022-09-09T15:35:19;100546.56;;;17.77;97.62
60307;BME280;46155;52.364;6.580;2022-09-09T15:37:45;100550.06;;;17.76;98.45
60307;BME280;46155;52.364;6.580;2022-09-09T15:40:10;100546.59;;;17.78;99.45
60307;BME280;46155;52.364;6.580;2022-09-09T15:42:35;100546.56;;;17.77;99.63
60307;BME280;46155;52.364;6.580;2022-09-09T15:45:01;100540.25;;;17.73;97.27
60307;BME280;46155;52.364;6.580;2022-09-09T15:47:26;100534.03;;;17.71;96.57
60307;BME280;46155;52.364;6.580;2022-09-09T15:49:52;100547.34;;;17.72;96.04
60307;BME280;46155;52.364;6.580;2022-09-09T15:52:17;100537.63;;;17.75;96.17
60307;BME280;46155;52.364;6.580;2022-09-09T15:54:43;100544.78;;;17.77;96.69
60307;BME280;46155;52.364;6.580;2022-09-09T15:57:11;100539.72;;;17.85;96.64
60307;BME280;46155;52.364;6.580;2022-09-09T15:59:37;100540.69;;;17.88;97.02
60307;BME280;46155;52.364;6.580;2022-09-09T16:02:02;100547.06;;;17.94;97.05
60307;BME280;46155;52.364;6.580;2022-09-09T16:04:29;100546.28;;;17.98;96.23
60307;BME280;46155;52.364;6.580;2022-09-09T16:07:12;100543.69;;;18.01;95.47
60307;BME280;46155;52.364;6.580;2022-09-09T16:09:38;100547.13;;;17.97;95.41
60307;BME280;46155;52.364;6.580;2022-09-09T16:12:05;100534.59;;;17.91;95.55
60307;BME280;46155;52.364;6.580;2022-09-09T16:14:35;100542.63;;;17.94;95.95
60307;BME280;46155;52.364;6.580;2022-09-09T16:17:02;100540.06;;;17.97;95.88
60307;BME280;46155;52.364;6.580;2022-09-09T16:19:27;100534.78;;;17.99;95.21
60307;BME280;46155;52.364;6.580;2022-09-09T16:21:53;100534.63;;;17.93;94.53
60307;BME280;46155;52.364;6.580;2022-09-09T16:24:19;100537.28;;;17.93;94.08
60307;BME280;46155;52.364;6.580;2022-09-09T16:26:48;100527.53;;;17.93;94.27
60307;BME280;46155;52.364;6.580;2022-09-09T16:29:14;100537.34;;;17.96;94.46
60307;BME280;46155;52.364;6.580;2022-09-09T16:31:40;100537.16;;;17.89;92.67
60307;BME280;46155;52.364;6.580;2022-09-09T16:34:09;100539.00;;;17.91;93.16
60307;BME280;46155;52.364;6.580;2022-09-09T16:36:36;100529.19;;;17.89;92.93
60307;BME280;46155;52.364;6.580;2022-09-09T16:39:05;100537.16;;;17.89;92.48
60307;BME280;46155;52.364;6.580;2022-09-09T16:41:32;100540.81;;;17.93;92.70
60307;BME280;46155;52.364;6.580;2022-09-09T16:43:59;100548.56;;;17.85;92.72
60307;BME280;46155;52.364;6.580;2022-09-09T16:46:26;100552.16;;;17.87;92.80
60307;BME280;46155;52.364;6.580;2022-09-09T16:48:53;100554.75;;;17.86;92.39
60307;BME280;46155;52.364;6.580;2022-09-09T16:51:26;100556.44;;;17.82;92.83
60307;BME280;46155;52.364;6.580;2022-09-09T16:53:54;100560.81;;;17.80;93.45
60307;BME280;46155;52.364;6.580;2022-09-09T16:56:22;100562.41;;;17.73;93.50
60307;BME280;46155;52.364;6.580;2022-09-09T16:58:54;100558.00;;;17.74;94.02
60307;BME280;46155;52.364;6.580;2022-09-09T17:01:21;100554.50;;;17.75;94.04